sensor_id;sensor_type;location;lat;lon;timestamp;temperature;humidity
949;DHT22;461;51.436;7.312;2023-04-28T00:00:57;11.80;78.90
949;DHT22;461;51.436;7.312;2023-04-28T00:03:26;11.80;79.90
949;DHT22;461;51.436;7.312;2023-04-28T00:05:52;11.60;80.80
949;DHT22;461;51.436;7.312;2023-04-28T00:08:18;11.60;82.50
949;DHT22;461;51.436;7.312;2023-04-28T00:10:46;11.60;83.50
949;DHT22;461;51.436;7.312;2023-04-28T00:13:11;11.60;87.40
949;DHT22;461;51.436;7.312;2023-04-28T00:15:37;11.60;89.10
949;DHT22;461;51.436;7.312;2023-04-28T00:18:03;11.50;91.70
949;DHT22;461;51.436;7.312;2023-04-28T00:20:29;11.40;92.90
949;DHT22;461;51.436;7.312;2023-04-28T00:22:55;11.40;95.10
949;DHT22;461;51.436;7.312;2023-04-28T00:25:21;11.40;94.80
949;DHT22;461;51.436;7.312;2023-04-28T00:27:47;11.40;94.10
949;DHT22;461;51.436;7.312;2023-04-28T00:30:13;11.40;94.30
949;DHT22;461;51.436;7.312;2023-04-28T00:32:39;11.40;94.70
949;DHT22;461;51.436;7.312;2023-04-28T00:35:05;11.30;94.20
949;DHT22;461;51.436;7.312;2023-04-28T00:37:35;11.30;98.90
949;DHT22;461;51.436;7.312;2023-04-28T00:40:01;11.30;98.00
949;DHT22;461;51.436;7.312;2023-04-28T00:42:27;11.20;99.90
949;DHT22;461;51.436;7.312;2023-04-28T00:44:53;11.20;99.90
949;DHT22;461;51.436;7.312;2023-04-28T00:47:18;11.10;99.90
949;DHT22;461;51.436;7.312;2023-04-28T00:49:44;11.10;99.90
949;DHT22;461;51.436;7.312;2023-04-28T00:52:12;11.00;99.90
949;DHT22;461;51.436;7.312;2023-04-28T00:54:37;10.90;99.90
949;DHT22;461;51.436;7.312;2023-04-28T00:57:03;10.90;99.90
949;DHT22;461;51.436;7.312;2023-04-28T00:59:30;10.90;99.90
949;DHT22;461;51.436;7.312;2023-04-28T01:01:56;10.80;99.90
949;DHT22;461;51.436;7.312;2023-04-28T01:04:22;10.80;99.90
949;DHT22;461;51.436;7.312;2023-04-28T01:06:52;10.80;99.90
949;DHT22;461;51.436;7.312;2023-04-28T01:09:20;10.80;99.90
949;DHT22;461;51.436;7.312;2023-04-28T01:11:46;10.90;99.90
949;DHT22;461;51.436;7.312;2023-04-28T01:14:12;10.90;99.90
949;DHT22;461;51.436;7.312;2023-04-28T19:41:08;16.00;99.90
949;DHT22;461;51.436;7.312;2023-04-28T19:43:34;15.90;99.90
949;DHT22;461;51.436;7.312;2023-04-28T19:46:03;15.80;99.90
949;DHT22;461;51.436;7.312;2023-04-28T19:48:33;15.80;99.90
949;DHT22;461;51.436;7.312;2023-04-28T19:51:05;15.80;99.90
949;DHT22;461;51.436;7.312;2023-04-28T19:53:30;15.70;99.90
949;DHT22;461;51.436;7.312;2023-04-28T19:55:59;15.80;99.90
949;DHT22;461;51.436;7.312;2023-04-28T19:58:28;15.70;99.90
949;DHT22;461;51.436;7.312;2023-04-28T20:01:07;15.70;99.90
949;DHT22;461;51.436;7.312;2023-04-28T20:03:36;15.70;99.90
949;DHT22;461;51.436;7.312;2023-04-28T20:06:02;15.70;99.90
949;DHT22;461;51.436;7.312;2023-04-28T20:08:28;15.50;99.90
949;DHT22;461;51.436;7.312;2023-04-28T20:10:56;15.50;99.90
949;DHT22;461;51.436;7.312;2023-04-28T20:13:25;15.30;99.90
949;DHT22;461;51.436;7.312;2023-04-28T20:15:55;15.40;99.90
949;DHT22;461;51.436;7.312;2023-04-28T20:18:21;15.30;99.90
949;DHT22;461;51.436;7.312;2023-04-28T20:20:50;15.30;99.90
949;DHT22;461;51.436;7.312;2023-04-28T20:23:19;15.30;99.90
949;DHT22;461;51.436;7.312;2023-04-28T20:25:47;15.20;99.90
949;DHT22;461;51.436;7.312;2023-04-28T20:28:13;15.30;99.90
949;DHT22;461;51.436;7.312;2023-04-28T20:30:42;15.40;99.90
949;DHT22;461;51.436;7.312;2023-04-28T20:33:12;15.40;99.90
949;DHT22;461;51.436;7.312;2023-04-28T20:36:01;15.50;99.90
949;DHT22;461;51.436;7.312;2023-04-28T20:38:33;15.60;99.90
949;DHT22;461;51.436;7.312;2023-04-28T20:41:14;15.50;99.90
949;DHT22;461;51.436;7.312;2023-04-28T20:44:12;15.50;99.90
949;DHT22;461;51.436;7.312;2023-04-28T20:47:35;15.40;99.90
949;DHT22;461;51.436;7.312;2023-04-28T20:50:14;15.40;99.90
949;DHT22;461;51.436;7.312;2023-04-28T20:52:40;15.40;99.90
949;DHT22;461;51.436;7.312;2023-04-28T20:55:07;15.60;99.90
949;DHT22;461;51.436;7.312;2023-04-28T20:57:37;15.60;99.90
949;DHT22;461;51.436;7.312;2023-04-28T21:00:08;15.60;99.90
949;DHT22;461;51.436;7.312;2023-04-28T21:02:35;15.50;99.90
949;DHT22;461;51.436;7.312;2023-04-28T21:05:06;15.50;99.90
949;DHT22;461;51.436;7.312;2023-04-28T21:11:01;15.40;99.90
949;DHT22;461;51.436;7.312;2023-04-28T21:16:42;15.40;99.90
949;DHT22;461;51.436;7.312;2023-04-28T21:19:20;15.20;99.90
949;DHT22;461;51.436;7.312;2023-04-28T21:21:54;15.00;99.90
949;DHT22;461;51.436;7.312;2023-04-28T21:24:20;14.90;99.90
949;DHT22;461;51.436;7.312;2023-04-28T21:26:49;14.90;99.90
949;DHT22;461;51.436;7.312;2023-04-28T21:29:20;14.90;99.90
949;DHT22;461;51.436;7.312;2023-04-28T21:31:54;14.90;99.90
949;DHT22;461;51.436;7.312;2023-04-28T21:34:30;15.10;99.90
949;DHT22;461;51.436;7.312;2023-04-28T21:37:04;15.20;99.90
949;DHT22;461;51.436;7.312;2023-04-28T21:39:30;15.00;99.90
949;DHT22;461;51.436;7.312;2023-04-28T21:42:04;14.90;99.90
949;DHT22;461;51.436;7.312;2023-04-28T21:44:32;14.90;99.90
949;DHT22;461;51.436;7.312;2023-04-28T21:47:02;14.80;99.90
949;DHT22;461;51.436;7.312;2023-04-28T21:49:32;14.80;99.90
949;DHT22;461;51.436;7.312;2023-04-28T21:55:05;14.60;99.90
949;DHT22;461;51.436;7.312;2023-04-28T21:57:31;14.60;99.90
949;DHT22;461;51.436;7.312;2023-04-28T22:00:01;14.60;99.90
949;DHT22;461;51.436;7.312;2023-04-28T22:02:34;14.70;99.90
949;DHT22;461;51.436;7.312;2023-04-28T22:04:59;14.60;99.90
949;DHT22;461;51.436;7.312;2023-04-28T22:07:25;14.50;99.90
949;DHT22;461;51.436;7.312;2023-04-28T22:09:52;14.50;99.90
949;DHT22;461;51.436;7.312;2023-04-28T22:12:18;14.60;99.90
949;DHT22;461;51.436;7.312;2023-04-28T22:14:44;14.60;99.90
949;DHT22;461;51.436;7.312;2023-04-28T22:17:10;14.60;99.90
949;DHT22;461;51.436;7.312;2023-04-28T22:19:36;14.60;99.90
949;DHT22;461;51.436;7.312;2023-04-28T22:22:02;14.60;99.90
949;DHT22;461;51.436;7.312;2023-04-28T22:24:27;14.60;99.90
949;DHT22;461;51.436;7.312;2023-04-28T22:26:53;14.50;99.90
949;DHT22;461;51.436;7.312;2023-04-28T22:29:19;14.60;99.90
949;DHT22;461;51.436;7.312;2023-04-28T22:31:45;14.60;99.90
949;DHT22;461;51.436;7.312;2023-04-28T22:34:11;14.60;99.90
949;DHT22;461;51.436;7.312;2023-04-28T22:36:36;14.50;99.90
949;DHT22;461;51.436;7.312;2023-04-28T22:39:03;14.30;99.90
949;DHT22;461;51.436;7.312;2023-04-28T22:41:30;14.30;99.90
949;DHT22;461;51.436;7.312;2023-04-28T22:43:56;14.30;99.90
949;DHT22;461;51.436;7.312;2023-04-28T22:46:21;14.30;99.90
949;DHT22;461;51.436;7.312;2023-04-28T22:48:47;14.30;99.90
949;DHT22;461;51.436;7.312;2023-04-28T22:51:14;14.30;99.90
949;DHT22;461;51.436;7.312;2023-04-28T22:53:40;14.20;99.90
949;DHT22;461;51.436;7.312;2023-04-28T22:56:06;14.20;99.90
949;DHT22;461;51.436;7.312;2023-04-28T22:58:32;14.20;99.90
949;DHT22;461;51.436;7.312;2023-04-28T23:01:01;14.10;99.90
949;DHT22;461;51.436;7.312;2023-04-28T23:03:28;14.10;99.90
949;DHT22;461;51.436;7.312;2023-04-28T23:05:55;14.10;99.90
949;DHT22;461;51.436;7.312;2023-04-28T23:08:20;14.00;99.90
949;DHT22;461;51.436;7.312;2023-04-28T23:10:47;13.90;99.90
949;DHT22;461;51.436;7.312;2023-04-28T23:13:14;13.80;99.90
949;DHT22;461;51.436;7.312;2023-04-28T23:15:39;13.80;99.90
949;DHT22;461;51.436;7.312;2023-04-28T23:18:06;13.70;99.90
949;DHT22;461;51.436;7.312;2023-04-28T23:20:32;13.70;99.90
949;DHT22;461;51.436;7.312;2023-04-28T23:22:58;13.60;99.90
949;DHT22;461;51.436;7.312;2023-04-28T23:25:24;13.50;99.90
949;DHT22;461;51.436;7.312;2023-04-28T23:27:50;13.50;99.90
949;DHT22;461;51.436;7.312;2023-04-28T23:30:19;13.50;99.90
949;DHT22;461;51.436;7.312;2023-04-28T23:32:45;13.50;99.90
949;DHT22;461;51.436;7.312;2023-04-28T23:35:10;13.60;99.90
949;DHT22;461;51.436;7.312;2023-04-28T23:37:36;13.60;99.90
949;DHT22;461;51.436;7.312;2023-04-28T23:40:03;13.50;99.90
949;DHT22;461;51.436;7.312;2023-04-28T23:42:29;13.50;99.90
949;DHT22;461;51.436;7.312;2023-04-28T23:44:55;13.40;99.90
949;DHT22;461;51.436;7.312;2023-04-28T23:47:22;13.30;99.90
949;DHT22;461;51.436;7.312;2023-04-28T23:49:48;13.40;99.90
949;DHT22;461;51.436;7.312;2023-04-28T23:52:20;13.30;99.90
949;DHT22;461;51.436;7.312;2023-04-28T23:54:46;13.30;99.90
949;DHT22;461;51.436;7.312;2023-04-28T23:57:12;13.30;99.90
949;DHT22;461;51.436;7.312;2023-04-28T23:59:38;13.30;99.90
